sensor_id;sensor_type;location;lat;lon;timestamp;temperature;humidity
578;DHT22;275;48.492;9.214;2023-03-21T00:02:16;13.80;31.50
578;DHT22;275;48.492;9.214;2023-03-21T00:04:43;14.00;31.40
578;DHT22;275;48.492;9.214;2023-03-21T00:07:11;14.20;31.20
578;DHT22;275;48.492;9.214;2023-03-21T00:09:37;14.30;31.40
578;DHT22;275;48.492;9.214;2023-03-21T00:12:05;14.30;31.20
578;DHT22;275;48.492;9.214;2023-03-21T00:14:34;14.30;31.30
578;DHT22;275;48.492;9.214;2023-03-21T00:17:03;14.40;31.30
578;DHT22;275;48.492;9.214;2023-03-21T00:19:30;14.50;31.00
578;DHT22;275;48.492;9.214;2023-03-21T00:21:57;14.40;30.90
578;DHT22;275;48.492;9.214;2023-03-21T00:24:26;14.20;32.20
578;DHT22;275;48.492;9.214;2023-03-21T00:26:53;14.10;31.70
578;DHT22;275;48.492;9.214;2023-03-21T00:29:20;14.20;31.40
578;DHT22;275;48.492;9.214;2023-03-21T00:31:47;13.60;32.30
578;DHT22;275;48.492;9.214;2023-03-21T00:34:15;13.70;33.00
578;DHT22;275;48.492;9.214;2023-03-21T00:36:42;13.40;32.90
578;DHT22;275;48.492;9.214;2023-03-21T00:39:09;13.00;33.90
578;DHT22;275;48.492;9.214;2023-03-21T00:41:36;13.10;33.90
578;DHT22;275;48.492;9.214;2023-03-21T00:44:03;13.30;33.30
578;DHT22;275;48.492;9.214;2023-03-21T00:46:30;13.20;33.40
578;DHT22;275;48.492;9.214;2023-03-21T00:48:56;13.40;32.90
578;DHT22;275;48.492;9.214;2023-03-21T00:51:25;13.20;33.20
578;DHT22;275;48.492;9.214;2023-03-21T00:53:53;12.80;34.50
578;DHT22;275;48.492;9.214;2023-03-21T00:56:20;12.80;34.30
578;DHT22;275;48.492;9.214;2023-03-21T00:58:47;13.30;33.40
578;DHT22;275;48.492;9.214;2023-03-21T01:01:14;13.50;32.60
578;DHT22;275;48.492;9.214;2023-03-21T01:03:41;13.80;31.80
578;DHT22;275;48.492;9.214;2023-03-21T01:06:12;13.80;31.90
578;DHT22;275;48.492;9.214;2023-03-21T01:08:46;13.90;31.50
578;DHT22;275;48.492;9.214;2023-03-21T01:11:16;14.00;31.30
578;DHT22;275;48.492;9.214;2023-03-21T01:13:43;14.20;30.80
578;DHT22;275;48.492;9.214;2023-03-21T01:16:10;14.40;30.50
578;DHT22;275;48.492;9.214;2023-03-21T01:18:38;14.40;30.30
578;DHT22;275;48.492;9.214;2023-03-21T01:21:08;14.20;30.60
578;DHT22;275;48.492;9.214;2023-03-21T01:23:35;14.20;30.40
578;DHT22;275;48.492;9.214;2023-03-21T01:26:03;13.80;31.40
578;DHT22;275;48.492;9.214;2023-03-21T01:28:31;13.60;31.40
578;DHT22;275;48.492;9.214;2023-03-21T01:31:00;13.80;31.10
578;DHT22;275;48.492;9.214;2023-03-21T01:33:28;13.70;32.10
578;DHT22;275;48.492;9.214;2023-03-21T01:35:55;13.90;31.10
578;DHT22;275;48.492;9.214;2023-03-21T01:38:23;14.10;30.70
578;DHT22;275;48.492;9.214;2023-03-21T01:40:50;13.80;32.10
578;DHT22;275;48.492;9.214;2023-03-21T01:43:24;13.40;32.30
578;DHT22;275;48.492;9.214;2023-03-21T01:46:09;13.40;32.70
578;DHT22;275;48.492;9.214;2023-03-21T01:48:47;13.90;31.50
578;DHT22;275;48.492;9.214;2023-03-21T01:51:16;14.20;30.80
578;DHT22;275;48.492;9.214;2023-03-21T01:53:45;14.10;30.70
578;DHT22;275;48.492;9.214;2023-03-21T01:56:17;14.10;30.70
578;DHT22;275;48.492;9.214;2023-03-21T01:58:47;14.20;30.80
578;DHT22;275;48.492;9.214;2023-03-21T02:01:15;14.10;30.70
578;DHT22;275;48.492;9.214;2023-03-21T02:03:45;14.20;30.80
578;DHT22;275;48.492;9.214;2023-03-21T02:06:21;14.20;30.80
578;DHT22;275;48.492;9.214;2023-03-21T02:08:51;14.20;30.50
578;DHT22;275;48.492;9.214;2023-03-21T02:11:18;14.10;30.80
578;DHT22;275;48.492;9.214;2023-03-21T02:13:48;14.10;30.70
578;DHT22;275;48.492;9.214;2023-03-21T02:16:19;14.10;30.80
578;DHT22;275;48.492;9.214;2023-03-21T02:18:55;14.00;30.70
578;DHT22;275;48.492;9.214;2023-03-21T02:21:53;14.00;30.90
578;DHT22;275;48.492;9.214;2023-03-21T02:27:36;14.10;30.70
578;DHT22;275;48.492;9.214;2023-03-21T02:30:32;14.00;30.60
578;DHT22;275;48.492;9.214;2023-03-21T02:36:15;14.00;31.30
578;DHT22;275;48.492;9.214;2023-03-21T02:38:50;14.20;30.80
578;DHT22;275;48.492;9.214;2023-03-21T02:41:23;14.30;31.10
578;DHT22;275;48.492;9.214;2023-03-21T02:43:54;14.00;32.10
578;DHT22;275;48.492;9.214;2023-03-21T02:46:25;13.90;32.20
578;DHT22;275;48.492;9.214;2023-03-21T02:48:58;13.90;32.30
578;DHT22;275;48.492;9.214;2023-03-21T02:51:29;13.70;32.60
578;DHT22;275;48.492;9.214;2023-03-21T02:54:01;13.90;32.10
578;DHT22;275;48.492;9.214;2023-03-21T02:56:30;14.00;32.00
578;DHT22;275;48.492;9.214;2023-03-21T02:58:58;13.90;32.20
578;DHT22;275;48.492;9.214;2023-03-21T03:01:25;13.80;32.50
578;DHT22;275;48.492;9.214;2023-03-21T03:03:53;13.70;32.70
578;DHT22;275;48.492;9.214;2023-03-21T03:06:23;13.70;32.90
578;DHT22;275;48.492;9.214;2023-03-21T03:09:08;13.80;32.70
578;DHT22;275;48.492;9.214;2023-03-21T03:11:40;13.20;34.10
578;DHT22;275;48.492;9.214;2023-03-21T03:14:19;12.90;35.00
578;DHT22;275;48.492;9.214;2023-03-21T03:17:01;13.10;34.40
578;DHT22;275;48.492;9.214;2023-03-21T03:19:35;13.30;34.10
578;DHT22;275;48.492;9.214;2023-03-21T03:22:09;13.00;34.90
578;DHT22;275;48.492;9.214;2023-03-21T03:24:44;13.20;34.40
578;DHT22;275;48.492;9.214;2023-03-21T03:27:15;13.10;34.50
578;DHT22;275;48.492;9.214;2023-03-21T03:29:45;13.30;34.00
578;DHT22;275;48.492;9.214;2023-03-21T03:32:17;13.50;33.40
578;DHT22;275;48.492;9.214;2023-03-21T03:34:48;13.50;33.00
578;DHT22;275;48.492;9.214;2023-03-21T03:37:19;13.50;32.90
578;DHT22;275;48.492;9.214;2023-03-21T03:39:56;13.40;33.10
578;DHT22;275;48.492;9.214;2023-03-21T03:42:26;13.50;32.80
578;DHT22;275;48.492;9.214;2023-03-21T03:44:54;13.40;33.50
578;DHT22;275;48.492;9.214;2023-03-21T03:47:26;13.50;32.90
578;DHT22;275;48.492;9.214;2023-03-21T03:49:58;13.70;33.10
578;DHT22;275;48.492;9.214;2023-03-21T03:52:30;13.70;32.30
578;DHT22;275;48.492;9.214;2023-03-21T03:54:59;13.80;32.30
578;DHT22;275;48.492;9.214;2023-03-21T03:57:26;13.70;32.50
578;DHT22;275;48.492;9.214;2023-03-21T03:59:54;13.70;32.60
578;DHT22;275;48.492;9.214;2023-03-21T04:02:21;13.70;32.40
578;DHT22;275;48.492;9.214;2023-03-21T04:04:48;13.60;32.70
578;DHT22;275;48.492;9.214;2023-03-21T04:07:17;13.50;32.80
578;DHT22;275;48.492;9.214;2023-03-21T04:09:44;13.30;33.20
578;DHT22;275;48.492;9.214;2023-03-21T04:12:12;13.20;34.10
578;DHT22;275;48.492;9.214;2023-03-21T04:14:39;12.90;34.00
578;DHT22;275;48.492;9.214;2023-03-21T04:17:06;12.90;34.60
578;DHT22;275;48.492;9.214;2023-03-21T04:19:33;12.90;34.80
578;DHT22;275;48.492;9.214;2023-03-21T04:22:00;12.90;34.90
578;DHT22;275;48.492;9.214;2023-03-21T04:24:27;12.70;35.20
578;DHT22;275;48.492;9.214;2023-03-21T04:26:58;12.90;34.60
578;DHT22;275;48.492;9.214;2023-03-21T04:29:26;12.80;34.60
578;DHT22;275;48.492;9.214;2023-03-21T04:31:54;12.80;34.90
578;DHT22;275;48.492;9.214;2023-03-21T04:34:21;12.80;34.90
578;DHT22;275;48.492;9.214;2023-03-21T04:36:52;12.50;35.50
578;DHT22;275;48.492;9.214;2023-03-21T04:39:20;12.70;35.30
578;DHT22;275;48.492;9.214;2023-03-21T04:41:47;12.90;34.80
578;DHT22;275;48.492;9.214;2023-03-21T04:44:14;13.00;34.60
578;DHT22;275;48.492;9.214;2023-03-21T04:46:43;13.10;34.10
578;DHT22;275;48.492;9.214;2023-03-21T04:49:10;13.10;34.20
578;DHT22;275;48.492;9.214;2023-03-21T04:51:37;13.10;34.40
578;DHT22;275;48.492;9.214;2023-03-21T04:54:05;13.00;34.50
578;DHT22;275;48.492;9.214;2023-03-21T04:56:31;12.90;34.20
578;DHT22;275;48.492;9.214;2023-03-21T04:59:02;13.00;33.70
578;DHT22;275;48.492;9.214;2023-03-21T05:01:30;12.80;33.90
578;DHT22;275;48.492;9.214;2023-03-21T05:04:01;12.60;34.20
578;DHT22;275;48.492;9.214;2023-03-21T05:06:28;12.70;34.30
578;DHT22;275;48.492;9.214;2023-03-21T05:08:57;12.90;33.80
578;DHT22;275;48.492;9.214;2023-03-21T05:11:26;13.10;33.90
578;DHT22;275;48.492;9.214;2023-03-21T05:13:52;13.30;33.70
578;DHT22;275;48.492;9.214;2023-03-21T05:16:19;13.20;33.80
578;DHT22;275;48.492;9.214;2023-03-21T05:18:49;13.20;34.00
578;DHT22;275;48.492;9.214;2023-03-21T05:21:19;12.90;35.20
578;DHT22;275;48.492;9.214;2023-03-21T05:23:47;12.70;35.10
578;DHT22;275;48.492;9.214;2023-03-21T05:26:19;12.50;35.80
578;DHT22;275;48.492;9.214;2023-03-21T05:28:46;12.40;36.80
578;DHT22;275;48.492;9.214;2023-03-21T05:31:13;12.60;35.80
578;DHT22;275;48.492;9.214;2023-03-21T05:33:41;12.90;35.20
578;DHT22;275;48.492;9.214;2023-03-21T05:36:08;12.90;34.70
578;DHT22;275;48.492;9.214;2023-03-21T05:38:38;12.90;34.80
578;DHT22;275;48.492;9.214;2023-03-21T05:41:07;13.00;34.60
578;DHT22;275;48.492;9.214;2023-03-21T05:43:34;13.10;34.50
578;DHT22;275;48.492;9.214;2023-03-21T05:46:00;13.10;34.50
578;DHT22;275;48.492;9.214;2023-03-21T05:48:27;13.20;34.40
578;DHT22;275;48.492;9.214;2023-03-21T05:50:54;13.20;34.30
578;DHT22;275;48.492;9.214;2023-03-21T05:53:21;13.20;34.50
578;DHT22;275;48.492;9.214;2023-03-21T05:55:49;12.80;35.40
578;DHT22;275;48.492;9.214;2023-03-21T05:58:16;12.90;35.20
578;DHT22;275;48.492;9.214;2023-03-21T06:00:43;13.10;34.80
578;DHT22;275;48.492;9.214;2023-03-21T06:03:09;13.10;34.70
578;DHT22;275;48.492;9.214;2023-03-21T06:05:36;12.70;35.50
578;DHT22;275;48.492;9.214;2023-03-21T06:08:03;12.30;36.40
578;DHT22;275;48.492;9.214;2023-03-21T06:10:30;11.90;37.80
578;DHT22;275;48.492;9.214;2023-03-21T06:12:59;12.20;37.20
578;DHT22;275;48.492;9.214;2023-03-21T06:15:25;12.30;36.70
578;DHT22;275;48.492;9.214;2023-03-21T06:17:52;12.50;36.10
578;DHT22;275;48.492;9.214;2023-03-21T06:20:19;12.80;35.00
578;DHT22;275;48.492;9.214;2023-03-21T06:22:46;12.60;35.30
578;DHT22;275;48.492;9.214;2023-03-21T06:25:13;12.90;34.80
578;DHT22;275;48.492;9.214;2023-03-21T06:27:39;12.90;34.40
578;DHT22;275;48.492;9.214;2023-03-21T06:30:09;13.00;34.10
578;DHT22;275;48.492;9.214;2023-03-21T06:32:36;12.80;34.40
578;DHT22;275;48.492;9.214;2023-03-21T06:35:03;12.90;34.30
578;DHT22;275;48.492;9.214;2023-03-21T06:37:31;12.80;34.30
578;DHT22;275;48.492;9.214;2023-03-21T06:39:57;13.00;34.00
578;DHT22;275;48.492;9.214;2023-03-21T06:42:24;12.80;34.30
578;DHT22;275;48.492;9.214;2023-03-21T06:44:51;12.80;34.50
578;DHT22;275;48.492;9.214;2023-03-21T06:47:19;12.90;34.50
578;DHT22;275;48.492;9.214;2023-03-21T06:49:48;12.60;35.20
578;DHT22;275;48.492;9.214;2023-03-21T06:52:16;12.70;35.70
578;DHT22;275;48.492;9.214;2023-03-21T06:54:42;12.70;35.10
578;DHT22;275;48.492;9.214;2023-03-21T06:57:10;13.10;34.20
578;DHT22;275;48.492;9.214;2023-03-21T06:59:37;13.10;33.90
578;DHT22;275;48.492;9.214;2023-03-21T07:02:06;12.90;34.20
578;DHT22;275;48.492;9.214;2023-03-21T07:04:36;12.80;34.30
578;DHT22;275;48.492;9.214;2023-03-21T07:07:03;12.90;34.30
578;DHT22;275;48.492;9.214;2023-03-21T07:09:30;12.80;34.50
578;DHT22;275;48.492;9.214;2023-03-21T07:11:56;12.80;34.50
578;DHT22;275;48.492;9.214;2023-03-21T07:14:23;12.90;34.50
578;DHT22;275;48.492;9.214;2023-03-21T07:16:50;12.90;34.40
578;DHT22;275;48.492;9.214;2023-03-21T07:19:17;13.10;34.10
578;DHT22;275;48.492;9.214;2023-03-21T07:21:45;13.20;33.70
578;DHT22;275;48.492;9.214;2023-03-21T07:24:12;13.50;33.30
578;DHT22;275;48.492;9.214;2023-03-21T07:26:39;13.70;32.80
578;DHT22;275;48.492;9.214;2023-03-21T07:29:05;13.90;32.20
578;DHT22;275;48.492;9.214;2023-03-21T07:31:32;13.90;32.10
578;DHT22;275;48.492;9.214;2023-03-21T07:34:00;13.80;32.20
578;DHT22;275;48.492;9.214;2023-03-21T07:36:26;13.70;32.00
578;DHT22;275;48.492;9.214;2023-03-21T07:38:55;13.80;32.10
578;DHT22;275;48.492;9.214;2023-03-21T07:41:21;13.90;32.00
578;DHT22;275;48.492;9.214;2023-03-21T07:43:48;13.80;31.80
578;DHT22;275;48.492;9.214;2023-03-21T07:46:15;14.00;31.90
578;DHT22;275;48.492;9.214;2023-03-21T07:48:48;14.00;31.60
578;DHT22;275;48.492;9.214;2023-03-21T07:51:16;14.00;31.40
578;DHT22;275;48.492;9.214;2023-03-21T07:53:46;14.10;31.30
578;DHT22;275;48.492;9.214;2023-03-21T07:56:27;14.40;30.80
578;DHT22;275;48.492;9.214;2023-03-21T07:58:53;14.50;31.20
578;DHT22;275;48.492;9.214;2023-03-21T08:01:20;14.60;30.70
578;DHT22;275;48.492;9.214;2023-03-21T08:03:47;14.80;30.30
578;DHT22;275;48.492;9.214;2023-03-21T08:06:16;15.10;29.80
578;DHT22;275;48.492;9.214;2023-03-21T08:08:42;15.30;29.20
578;DHT22;275;48.492;9.214;2023-03-21T08:11:10;15.30;29.20
578;DHT22;275;48.492;9.214;2023-03-21T08:13:38;15.70;28.70
578;DHT22;275;48.492;9.214;2023-03-21T08:16:06;15.90;28.40
578;DHT22;275;48.492;9.214;2023-03-21T08:18:33;15.90;28.50
578;DHT22;275;48.492;9.214;2023-03-21T08:21:00;15.90;28.50
578;DHT22;275;48.492;9.214;2023-03-21T08:23:27;16.40;28.10
578;DHT22;275;48.492;9.214;2023-03-21T08:25:55;16.40;27.90
578;DHT22;275;48.492;9.214;2023-03-21T08:28:22;16.00;28.80
578;DHT22;275;48.492;9.214;2023-03-21T08:30:55;16.80;27.70
578;DHT22;275;48.492;9.214;2023-03-21T08:33:23;17.80;25.90
578;DHT22;275;48.492;9.214;2023-03-21T08:35:50;18.50;25.30
578;DHT22;275;48.492;9.214;2023-03-21T08:38:17;18.10;25.30
578;DHT22;275;48.492;9.214;2023-03-21T08:40:45;18.60;24.60
578;DHT22;275;48.492;9.214;2023-03-21T08:43:12;19.40;23.40
578;DHT22;275;48.492;9.214;2023-03-21T08:45:39;20.70;22.20
578;DHT22;275;48.492;9.214;2023-03-21T08:48:07;21.60;20.80
578;DHT22;275;48.492;9.214;2023-03-21T08:50:34;22.60;19.70
578;DHT22;275;48.492;9.214;2023-03-21T08:53:01;25.10;17.60
578;DHT22;275;48.492;9.214;2023-03-21T08:55:27;26.50;16.00
578;DHT22;275;48.492;9.214;2023-03-21T08:57:54;27.60;15.30
578;DHT22;275;48.492;9.214;2023-03-21T09:00:23;27.70;14.30
578;DHT22;275;48.492;9.214;2023-03-21T09:02:50;27.40;14.80
578;DHT22;275;48.492;9.214;2023-03-21T09:05:20;27.70;14.30
578;DHT22;275;48.492;9.214;2023-03-21T09:07:50;28.20;14.00
578;DHT22;275;48.492;9.214;2023-03-21T09:10:19;29.40;12.90
578;DHT22;275;48.492;9.214;2023-03-21T09:12:47;29.60;12.90
578;DHT22;275;48.492;9.214;2023-03-21T09:15:13;30.90;11.40
578;DHT22;275;48.492;9.214;2023-03-21T09:17:40;32.10;10.30
578;DHT22;275;48.492;9.214;2023-03-21T09:20:09;32.90;9.60
578;DHT22;275;48.492;9.214;2023-03-21T09:22:44;33.10;8.80
578;DHT22;275;48.492;9.214;2023-03-21T09:25:12;33.10;8.80
578;DHT22;275;48.492;9.214;2023-03-21T09:27:38;33.00;8.60
578;DHT22;275;48.492;9.214;2023-03-21T09:30:07;32.70;8.90
578;DHT22;275;48.492;9.214;2023-03-21T09:32:36;31.10;9.30
578;DHT22;275;48.492;9.214;2023-03-21T09:35:03;28.80;11.20
578;DHT22;275;48.492;9.214;2023-03-21T09:37:32;29.70;10.40
578;DHT22;275;48.492;9.214;2023-03-21T09:40:13;30.40;10.20
578;DHT22;275;48.492;9.214;2023-03-21T09:42:51;30.70;10.10
578;DHT22;275;48.492;9.214;2023-03-21T09:45:28;30.60;10.50
578;DHT22;275;48.492;9.214;2023-03-21T09:47:56;31.50;9.40
578;DHT22;275;48.492;9.214;2023-03-21T09:50:28;31.80;8.70
578;DHT22;275;48.492;9.214;2023-03-21T09:52:57;31.30;9.10
578;DHT22;275;48.492;9.214;2023-03-21T09:55:29;31.50;8.80
578;DHT22;275;48.492;9.214;2023-03-21T09:58:04;30.40;9.80
578;DHT22;275;48.492;9.214;2023-03-21T10:00:36;30.50;9.80
578;DHT22;275;48.492;9.214;2023-03-21T10:03:07;31.20;9.70
578;DHT22;275;48.492;9.214;2023-03-21T10:05:41;32.80;8.20
578;DHT22;275;48.492;9.214;2023-03-21T10:08:14;33.20;7.40
578;DHT22;275;48.492;9.214;2023-03-21T10:10:46;32.30;7.80
578;DHT22;275;48.492;9.214;2023-03-21T10:13:16;31.50;8.50
578;DHT22;275;48.492;9.214;2023-03-21T10:15:45;30.00;9.80
578;DHT22;275;48.492;9.214;2023-03-21T10:18:18;30.00;10.20
578;DHT22;275;48.492;9.214;2023-03-21T10:20:46;30.90;8.80
578;DHT22;275;48.492;9.214;2023-03-21T10:23:14;31.10;8.80
578;DHT22;275;48.492;9.214;2023-03-21T10:25:45;30.90;8.80
578;DHT22;275;48.492;9.214;2023-03-21T10:28:15;30.30;9.30
578;DHT22;275;48.492;9.214;2023-03-21T10:30:45;30.20;9.30
578;DHT22;275;48.492;9.214;2023-03-21T10:33:15;28.70;10.30
578;DHT22;275;48.492;9.214;2023-03-21T10:35:49;25.30;13.70
578;DHT22;275;48.492;9.214;2023-03-21T10:38:18;25.60;13.80
578;DHT22;275;48.492;9.214;2023-03-21T10:40:46;25.90;13.40
578;DHT22;275;48.492;9.214;2023-03-21T10:43:29;26.70;12.60
578;DHT22;275;48.492;9.214;2023-03-21T10:45:58;27.60;11.90
578;DHT22;275;48.492;9.214;2023-03-21T10:48:34;26.60;13.00
578;DHT22;275;48.492;9.214;2023-03-21T10:51:04;26.80;12.80
578;DHT22;275;48.492;9.214;2023-03-21T10:53:37;27.50;12.40
578;DHT22;275;48.492;9.214;2023-03-21T10:56:08;27.30;12.10
578;DHT22;275;48.492;9.214;2023-03-21T10:58:40;27.00;12.50
578;DHT22;275;48.492;9.214;2023-03-21T11:01:10;27.10;12.50
578;DHT22;275;48.492;9.214;2023-03-21T11:03:42;25.80;13.30
578;DHT22;275;48.492;9.214;2023-03-21T11:06:14;24.10;15.10
578;DHT22;275;48.492;9.214;2023-03-21T11:08:46;24.00;15.70
578;DHT22;275;48.492;9.214;2023-03-21T11:11:23;24.20;15.50
578;DHT22;275;48.492;9.214;2023-03-21T11:13:57;24.80;14.80
578;DHT22;275;48.492;9.214;2023-03-21T11:16:29;24.50;15.00
578;DHT22;275;48.492;9.214;2023-03-21T11:18:59;23.10;16.30
578;DHT22;275;48.492;9.214;2023-03-21T11:21:27;22.50;16.70
578;DHT22;275;48.492;9.214;2023-03-21T11:24:02;21.90;17.90
578;DHT22;275;48.492;9.214;2023-03-21T11:26:34;22.50;17.30
578;DHT22;275;48.492;9.214;2023-03-21T11:29:16;23.00;17.10
578;DHT22;275;48.492;9.214;2023-03-21T11:31:45;23.20;16.30
578;DHT22;275;48.492;9.214;2023-03-21T11:34:25;23.00;16.80
578;DHT22;275;48.492;9.214;2023-03-21T11:36:58;22.60;17.10
578;DHT22;275;48.492;9.214;2023-03-21T11:39:34;21.50;18.60
578;DHT22;275;48.492;9.214;2023-03-21T11:42:13;21.20;19.00
578;DHT22;275;48.492;9.214;2023-03-21T11:44:57;21.50;18.70
578;DHT22;275;48.492;9.214;2023-03-21T11:47:26;21.20;18.90
578;DHT22;275;48.492;9.214;2023-03-21T11:49:52;21.10;19.10
578;DHT22;275;48.492;9.214;2023-03-21T11:52:27;20.50;19.80
578;DHT22;275;48.492;9.214;2023-03-21T11:55:26;20.90;19.70
578;DHT22;275;48.492;9.214;2023-03-21T11:58:20;20.90;19.50
578;DHT22;275;48.492;9.214;2023-03-21T12:00:53;19.10;21.90
578;DHT22;275;48.492;9.214;2023-03-21T12:06:35;20.40;20.40
578;DHT22;275;48.492;9.214;2023-03-21T12:09:27;20.50;20.10
578;DHT22;275;48.492;9.214;2023-03-21T12:12:02;20.60;20.30
578;DHT22;275;48.492;9.214;2023-03-21T12:14:41;20.90;19.70
578;DHT22;275;48.492;9.214;2023-03-21T12:17:19;21.20;19.70
578;DHT22;275;48.492;9.214;2023-03-21T12:20:13;21.80;19.10
578;DHT22;275;48.492;9.214;2023-03-21T12:22:53;21.80;19.40
578;DHT22;275;48.492;9.214;2023-03-21T12:25:28;21.90;19.30
578;DHT22;275;48.492;9.214;2023-03-21T12:28:06;20.40;20.50
578;DHT22;275;48.492;9.214;2023-03-21T12:30:47;19.80;22.00
578;DHT22;275;48.492;9.214;2023-03-21T12:33:28;20.80;20.80
578;DHT22;275;48.492;9.214;2023-03-21T12:36:16;21.40;20.00
578;DHT22;275;48.492;9.214;2023-03-21T12:38:51;21.30;20.00
578;DHT22;275;48.492;9.214;2023-03-21T12:41:22;21.70;19.40
578;DHT22;275;48.492;9.214;2023-03-21T12:43:53;21.80;19.40
578;DHT22;275;48.492;9.214;2023-03-21T12:46:26;22.30;19.10
578;DHT22;275;48.492;9.214;2023-03-21T12:48:57;22.40;19.40
578;DHT22;275;48.492;9.214;2023-03-21T12:51:29;22.60;18.80
578;DHT22;275;48.492;9.214;2023-03-21T12:54:02;22.90;18.40
578;DHT22;275;48.492;9.214;2023-03-21T12:56:34;22.80;18.40
578;DHT22;275;48.492;9.214;2023-03-21T12:59:07;22.20;19.10
578;DHT22;275;48.492;9.214;2023-03-21T13:01:39;22.70;18.60
578;DHT22;275;48.492;9.214;2023-03-21T13:06:57;22.10;19.50
578;DHT22;275;48.492;9.214;2023-03-21T13:09:30;22.50;18.80
578;DHT22;275;48.492;9.214;2023-03-21T13:12:05;23.20;18.10
578;DHT22;275;48.492;9.214;2023-03-21T13:14:38;23.90;17.10
578;DHT22;275;48.492;9.214;2023-03-21T13:17:18;24.10;16.90
578;DHT22;275;48.492;9.214;2023-03-21T13:19:50;23.50;17.70
578;DHT22;275;48.492;9.214;2023-03-21T13:22:22;23.40;17.70
578;DHT22;275;48.492;9.214;2023-03-21T13:24:57;23.80;17.50
578;DHT22;275;48.492;9.214;2023-03-21T13:27:28;23.20;17.70
578;DHT22;275;48.492;9.214;2023-03-21T13:29:59;24.00;17.10
578;DHT22;275;48.492;9.214;2023-03-21T13:32:30;24.20;16.70
578;DHT22;275;48.492;9.214;2023-03-21T13:34:59;25.00;16.20
578;DHT22;275;48.492;9.214;2023-03-21T13:37:30;25.80;15.20
578;DHT22;275;48.492;9.214;2023-03-21T13:40:00;26.30;14.70
578;DHT22;275;48.492;9.214;2023-03-21T13:42:34;26.40;14.50
578;DHT22;275;48.492;9.214;2023-03-21T13:45:06;25.80;14.50
578;DHT22;275;48.492;9.214;2023-03-21T13:47:40;25.10;15.40
578;DHT22;275;48.492;9.214;2023-03-21T13:50:22;25.10;15.30
578;DHT22;275;48.492;9.214;2023-03-21T13:56:22;24.50;15.50
578;DHT22;275;48.492;9.214;2023-03-21T13:58:52;23.50;16.70
578;DHT22;275;48.492;9.214;2023-03-21T14:01:35;23.60;16.50
578;DHT22;275;48.492;9.214;2023-03-21T14:04:11;23.60;16.30
578;DHT22;275;48.492;9.214;2023-03-21T14:06:45;23.10;17.30
578;DHT22;275;48.492;9.214;2023-03-21T14:09:23;22.80;17.10
578;DHT22;275;48.492;9.214;2023-03-21T14:11:52;22.70;17.20
578;DHT22;275;48.492;9.214;2023-03-21T14:14:21;22.50;17.30
578;DHT22;275;48.492;9.214;2023-03-21T14:16:52;22.10;17.70
578;DHT22;275;48.492;9.214;2023-03-21T14:19:28;22.20;17.70
578;DHT22;275;48.492;9.214;2023-03-21T14:21:55;22.50;17.30
578;DHT22;275;48.492;9.214;2023-03-21T14:24:22;22.40;17.30
578;DHT22;275;48.492;9.214;2023-03-21T14:26:51;22.50;16.90
578;DHT22;275;48.492;9.214;2023-03-21T14:29:22;22.10;17.30
578;DHT22;275;48.492;9.214;2023-03-21T14:31:50;21.40;17.60
578;DHT22;275;48.492;9.214;2023-03-21T14:34:17;21.40;17.00
578;DHT22;275;48.492;9.214;2023-03-21T14:36:47;21.50;17.00
578;DHT22;275;48.492;9.214;2023-03-21T14:39:16;21.60;16.60
578;DHT22;275;48.492;9.214;2023-03-21T14:41:46;21.60;16.50
578;DHT22;275;48.492;9.214;2023-03-21T14:44:17;21.60;16.20
578;DHT22;275;48.492;9.214;2023-03-21T14:46:47;21.40;16.20
578;DHT22;275;48.492;9.214;2023-03-21T14:49:24;21.50;16.40
578;DHT22;275;48.492;9.214;2023-03-21T14:51:56;21.70;15.60
578;DHT22;275;48.492;9.214;2023-03-21T14:54:23;22.00;15.20
578;DHT22;275;48.492;9.214;2023-03-21T14:56:55;21.80;15.50
578;DHT22;275;48.492;9.214;2023-03-21T14:59:27;21.90;15.60
578;DHT22;275;48.492;9.214;2023-03-21T15:01:56;21.90;14.60
578;DHT22;275;48.492;9.214;2023-03-21T15:04:24;21.70;14.80
578;DHT22;275;48.492;9.214;2023-03-21T15:06:55;21.60;14.30
578;DHT22;275;48.492;9.214;2023-03-21T15:09:29;21.60;14.30
578;DHT22;275;48.492;9.214;2023-03-21T15:11:56;21.70;14.10
578;DHT22;275;48.492;9.214;2023-03-21T15:14:27;22.00;13.80
578;DHT22;275;48.492;9.214;2023-03-21T15:16:57;21.50;13.60
578;DHT22;275;48.492;9.214;2023-03-21T15:19:31;21.50;13.60
578;DHT22;275;48.492;9.214;2023-03-21T15:22:05;21.80;13.30
578;DHT22;275;48.492;9.214;2023-03-21T15:24:35;21.70;13.30
578;DHT22;275;48.492;9.214;2023-03-21T15:27:06;21.60;13.30
578;DHT22;275;48.492;9.214;2023-03-21T15:29:34;21.50;13.60
578;DHT22;275;48.492;9.214;2023-03-21T15:32:03;20.90;14.30
578;DHT22;275;48.492;9.214;2023-03-21T15:34:30;20.50;14.60
578;DHT22;275;48.492;9.214;2023-03-21T15:37:03;20.80;14.60
578;DHT22;275;48.492;9.214;2023-03-21T15:39:31;21.10;14.30
578;DHT22;275;48.492;9.214;2023-03-21T15:42:03;20.90;14.60
578;DHT22;275;48.492;9.214;2023-03-21T15:44:30;21.10;14.50
578;DHT22;275;48.492;9.214;2023-03-21T15:46:57;20.80;15.00
578;DHT22;275;48.492;9.214;2023-03-21T15:49:27;20.60;15.30
578;DHT22;275;48.492;9.214;2023-03-21T15:52:02;20.30;15.70
578;DHT22;275;48.492;9.214;2023-03-21T15:54:33;19.80;16.30
578;DHT22;275;48.492;9.214;2023-03-21T15:57:03;20.30;15.90
578;DHT22;275;48.492;9.214;2023-03-21T15:59:37;20.30;15.90
578;DHT22;275;48.492;9.214;2023-03-21T16:02:14;20.10;16.30
578;DHT22;275;48.492;9.214;2023-03-21T16:04:56;20.00;16.70
578;DHT22;275;48.492;9.214;2023-03-21T16:07:25;19.90;17.00
578;DHT22;275;48.492;9.214;2023-03-21T16:09:58;20.20;17.20
578;DHT22;275;48.492;9.214;2023-03-21T16:12:25;20.20;17.20
578;DHT22;275;48.492;9.214;2023-03-21T16:14:52;20.30;17.10
578;DHT22;275;48.492;9.214;2023-03-21T16:17:27;19.30;17.80
578;DHT22;275;48.492;9.214;2023-03-21T16:19:56;18.80;18.30
578;DHT22;275;48.492;9.214;2023-03-21T16:22:23;18.40;19.00
578;DHT22;275;48.492;9.214;2023-03-21T16:24:51;18.50;18.80
578;DHT22;275;48.492;9.214;2023-03-21T16:27:19;18.20;19.10
578;DHT22;275;48.492;9.214;2023-03-21T16:29:46;18.50;19.10
578;DHT22;275;48.492;9.214;2023-03-21T16:32:15;18.90;19.00
578;DHT22;275;48.492;9.214;2023-03-21T16:34:42;19.50;18.30
578;DHT22;275;48.492;9.214;2023-03-21T16:37:10;19.10;18.50
578;DHT22;275;48.492;9.214;2023-03-21T16:39:40;19.00;18.90
578;DHT22;275;48.492;9.214;2023-03-21T16:42:10;18.40;19.60
578;DHT22;275;48.492;9.214;2023-03-21T16:44:37;18.60;19.50
578;DHT22;275;48.492;9.214;2023-03-21T16:47:15;18.20;20.40
578;DHT22;275;48.492;9.214;2023-03-21T16:49:43;18.00;21.30
578;DHT22;275;48.492;9.214;2023-03-21T16:52:11;17.90;20.90
578;DHT22;275;48.492;9.214;2023-03-21T16:54:39;17.90;21.20
578;DHT22;275;48.492;9.214;2023-03-21T16:57:23;18.10;21.10
578;DHT22;275;48.492;9.214;2023-03-21T16:59:53;18.30;20.80
578;DHT22;275;48.492;9.214;2023-03-21T17:02:22;18.30;20.90
578;DHT22;275;48.492;9.214;2023-03-21T17:04:50;18.20;20.90
578;DHT22;275;48.492;9.214;2023-03-21T17:07:17;18.50;20.70
578;DHT22;275;48.492;9.214;2023-03-21T17:09:44;18.60;20.50
578;DHT22;275;48.492;9.214;2023-03-21T17:12:13;18.30;20.70